createdAt,value
2017-06-29T00:00:00.527Z,0
2017-06-29T00:01:02.277Z,0
2017-06-29T00:02:05.101Z,0
2017-06-29T00:03:06.799Z,0
2017-06-29T00:04:14.598Z,0
2017-06-29T00:05:16.303Z,0
2017-06-29T00:06:34.228Z,0
2017-06-29T00:07:36.579Z,0
2017-06-29T00:55:07.738Z,0
2017-06-29T00:56:09.647Z,0
2017-06-29T00:57:22.261Z,0
2017-06-29T00:58:24.018Z,0
2017-06-29T00:59:27.762Z,0
2017-06-29T01:00:29.423Z,0
2017-06-29T01:01:32.166Z,0
2017-06-29T01:02:33.827Z,0
2017-06-29T01:03:35.565Z,0
2017-06-29T01:04:37.244Z,0
2017-06-29T01:05:39.084Z,0
2017-06-29T01:06:40.788Z,0
2017-06-29T01:07:44.994Z,0
2017-06-29T01:08:46.687Z,0
2017-06-29T01:09:48.539Z,0
2017-06-29T01:10:50.240Z,0
2017-06-29T01:11:52.983Z,0
2017-06-29T01:12:54.695Z,0
2017-06-29T01:13:57.493Z,0
2017-06-29T01:14:59.164Z,0
2017-06-29T01:16:00.837Z,0
2017-06-29T01:18:19.933Z,0
2017-06-29T01:19:21.595Z,0
2017-06-29T01:20:24.466Z,0
2017-06-29T01:21:26.118Z,0
2017-06-29T01:22:42.762Z,0
2017-06-29T01:23:44.463Z,0
2017-06-29T01:24:47.275Z,0
2017-06-29T01:25:48.994Z,0
2017-06-29T01:26:51.807Z,0
2017-06-29T01:27:53.483Z,0
2017-06-29T01:28:56.308Z,0
2017-06-29T01:29:57.989Z,0
2017-06-29T01:30:59.915Z,0
2017-06-29T01:32:01.588Z,0
2017-06-29T01:33:04.324Z,0
2017-06-29T01:34:06.033Z,0
2017-06-29T01:35:07.897Z,0
2017-06-29T01:36:09.581Z,0
2017-06-29T01:37:17.307Z,0
2017-06-29T01:38:18.968Z,0
2017-06-29T01:39:31.713Z,0
2017-06-29T01:40:33.385Z,0
2017-06-29T01:41:37.201Z,0
2017-06-29T01:42:38.890Z,0
2017-06-29T01:43:47.516Z,0
2017-06-29T01:44:49.531Z,0
2017-06-29T01:45:53.200Z,0
2017-06-29T01:46:55.108Z,0
2017-06-29T01:47:59.173Z,0
2017-06-29T01:49:01.135Z,0
2017-06-29T01:50:03.242Z,0
2017-06-29T01:51:07.416Z,0
2017-06-29T01:52:09.506Z,0
2017-06-29T01:53:12.106Z,0
2017-06-29T01:54:15.080Z,0
2017-06-29T01:55:16.959Z,0
2017-06-29T01:56:18.708Z,0
2017-06-29T01:57:20.380Z,0
2017-06-29T01:58:22.037Z,0
2017-06-29T01:59:23.862Z,0
2017-06-29T02:00:25.529Z,0
2017-06-29T02:01:27.378Z,0
2017-06-29T02:02:29.055Z,0
2017-06-29T02:03:30.881Z,0
2017-06-29T02:04:32.546Z,0
2017-06-29T02:05:34.386Z,0
2017-06-29T02:06:36.048Z,0
2017-06-29T02:07:37.841Z,0
2017-06-29T02:08:39.510Z,0
2017-06-29T02:09:41.331Z,0
2017-06-29T02:10:42.987Z,0
2017-06-29T02:11:44.837Z,0
2017-06-29T02:12:46.495Z,0
2017-06-29T02:13:48.331Z,0
2017-06-29T02:14:49.992Z,0
2017-06-29T02:15:51.824Z,0
2017-06-29T02:16:53.472Z,0
2017-06-29T02:17:55.319Z,0
2017-06-29T02:18:57.406Z,0
2017-06-29T02:19:59.118Z,0
2017-06-29T02:21:01.198Z,0
2017-06-29T02:22:03.043Z,0
2017-06-29T02:23:04.789Z,0
2017-06-29T02:24:08.646Z,4
2017-06-29T02:25:10.317Z,4
2017-06-29T02:26:19.229Z,4
2017-06-29T02:27:20.966Z,4
2017-06-29T02:28:23.799Z,4
2017-06-29T02:29:25.547Z,4
2017-06-29T02:30:32.373Z,4
2017-06-29T02:31:34.065Z,4
2017-06-29T02:32:41.241Z,4
2017-06-29T02:33:42.932Z,4
2017-06-29T02:34:46.687Z,4
2017-06-29T02:35:48.363Z,8
2017-06-29T02:36:51.117Z,4
2017-06-29T02:37:52.818Z,8
2017-06-29T02:38:59.179Z,8
2017-06-29T02:40:01.000Z,8
2017-06-29T02:41:07.707Z,12
2017-06-29T02:42:09.401Z,12
2017-06-29T02:43:11.187Z,16
2017-06-29T02:44:12.865Z,16
2017-06-29T02:45:15.639Z,16
2017-06-29T02:46:17.354Z,16
2017-06-29T02:47:19.138Z,20
2017-06-29T02:48:20.800Z,24
2017-06-29T02:49:22.494Z,24
2017-06-29T02:50:24.200Z,28
2017-06-29T02:51:41.147Z,28
2017-06-29T02:52:42.839Z,32
2017-06-29T02:53:44.568Z,36
2017-06-29T02:54:46.275Z,36
2017-06-29T02:55:49.098Z,40
2017-06-29T02:56:50.763Z,40
2017-06-29T02:57:54.484Z,44
2017-06-29T02:58:56.146Z,48
2017-06-29T02:59:58.916Z,52
2017-06-29T03:01:00.617Z,56
2017-06-29T03:02:02.477Z,60
2017-06-29T03:03:04.158Z,64
2017-06-29T03:04:05.949Z,72
2017-06-29T03:05:07.619Z,80
2017-06-29T03:06:09.399Z,84
2017-06-29T03:07:11.086Z,92
2017-06-29T03:08:13.813Z,104
2017-06-29T03:09:15.501Z,108
2017-06-29T03:10:17.263Z,120
2017-06-29T03:11:18.945Z,128
2017-06-29T03:12:26.245Z,144
2017-06-29T03:13:27.967Z,164
2017-06-29T03:14:34.232Z,188
2017-06-29T03:15:35.901Z,220
2017-06-29T03:16:43.262Z,252
2017-06-29T03:17:44.943Z,284
2017-06-29T03:18:47.705Z,320
2017-06-29T03:19:49.380Z,352
2017-06-29T03:20:57.743Z,372
2017-06-29T03:21:59.412Z,408
2017-06-29T03:23:01.262Z,448
2017-06-29T03:24:02.952Z,484
2017-06-29T03:25:11.299Z,528
2017-06-29T03:26:13.056Z,572
2017-06-29T03:27:21.741Z,612
2017-06-29T03:28:23.414Z,664
2017-06-29T03:29:29.742Z,712
2017-06-29T03:30:31.440Z,760
2017-06-29T03:31:33.257Z,796
2017-06-29T03:32:34.949Z,832
2017-06-29T03:33:36.833Z,868
2017-06-29T03:34:38.948Z,892
2017-06-29T03:35:46.289Z,916
2017-06-29T03:36:47.992Z,948
2017-06-29T03:37:56.307Z,976
2017-06-29T03:38:57.989Z,1020
2017-06-29T03:40:01.660Z,1056
2017-06-29T03:41:03.437Z,1080
2017-06-29T03:42:05.251Z,1116
2017-06-29T03:43:06.923Z,1148
2017-06-29T03:44:21.220Z,1164
2017-06-29T03:45:22.935Z,1164
2017-06-29T03:46:24.792Z,1172
2017-06-29T03:47:26.503Z,1184
2017-06-29T03:48:29.260Z,1204
2017-06-29T03:49:30.956Z,1244
2017-06-29T03:50:38.598Z,1296
2017-06-29T03:51:40.337Z,1388
2017-06-29T03:52:57.775Z,1496
2017-06-29T03:53:59.437Z,1616
2017-06-29T03:55:06.842Z,1708
2017-06-29T03:56:08.579Z,1820
2017-06-29T03:57:12.349Z,1928
2017-06-29T03:58:14.045Z,2036
2017-06-29T03:59:30.807Z,2124
2017-06-29T04:00:32.598Z,2180
2017-06-29T04:01:39.280Z,2172
2017-06-29T04:02:41.014Z,2204
2017-06-29T04:03:43.789Z,2192
2017-06-29T04:04:45.493Z,2128
2017-06-29T04:05:51.780Z,2080
2017-06-29T04:06:53.497Z,2076
2017-06-29T04:07:57.233Z,2120
2017-06-29T04:08:58.984Z,2208
2017-06-29T04:10:06.317Z,2308
2017-06-29T04:11:08.021Z,2392
2017-06-29T04:12:11.259Z,2472
2017-06-29T04:13:12.943Z,2564
2017-06-29T04:14:14.692Z,2660
2017-06-29T04:15:16.400Z,2724
2017-06-29T04:16:24.233Z,2828
2017-06-29T04:17:26.335Z,3008
2017-06-29T04:18:30.159Z,2956
2017-06-29T04:19:31.887Z,3012
2017-06-29T04:20:34.731Z,3132
2017-06-29T04:21:36.456Z,3260
2017-06-29T04:22:50.229Z,3324
2017-06-29T04:23:52.129Z,3312
2017-06-29T04:51:03.793Z,7484
2017-06-29T04:52:05.449Z,7976
2017-06-29T04:53:07.298Z,8492
2017-06-29T04:54:08.982Z,9320
2017-06-29T04:55:10.870Z,10036
2017-06-29T04:56:12.559Z,10976
2017-06-29T04:57:14.236Z,9624
2017-06-29T04:58:16.040Z,13304
2017-06-29T04:59:17.845Z,13528
2017-06-29T05:00:22.006Z,14496
2017-06-29T05:01:23.610Z,15240
2017-06-29T05:02:25.670Z,13932
2017-06-29T05:03:27.366Z,13036
2017-06-29T05:04:29.022Z,14024
2017-06-29T05:05:31.097Z,13892
2017-06-29T05:06:32.799Z,14036
2017-06-29T05:07:34.508Z,13004
2017-06-29T05:08:36.198Z,12616
2017-06-29T05:09:38.055Z,14140
2017-06-29T05:10:39.822Z,14228
2017-06-29T05:11:41.495Z,14376
2017-06-29T05:12:43.319Z,15680
2017-06-29T05:13:45.631Z,12140
2017-06-29T05:14:47.285Z,10912
2017-06-29T05:15:49.123Z,8972
2017-06-29T05:16:50.798Z,8476
2017-06-29T05:17:52.479Z,8948
2017-06-29T05:18:54.212Z,8336
2017-06-29T05:19:55.898Z,9544
2017-06-29T05:20:57.567Z,9600
2017-06-29T05:21:59.264Z,9068
2017-06-29T05:23:01.644Z,7996
2017-06-29T05:24:04.403Z,8388
2017-06-29T05:25:06.153Z,8388
2017-06-29T05:26:13.713Z,8264
2017-06-29T05:27:15.380Z,7740
2017-06-29T05:28:17.103Z,7436
2017-06-29T05:29:18.840Z,7304
2017-06-29T05:30:20.581Z,7384
2017-06-29T05:31:23.377Z,7724
2017-06-29T05:32:27.171Z,8152
2017-06-29T05:33:28.863Z,9056
2017-06-29T05:34:36.654Z,9196
2017-06-29T05:35:38.340Z,7652
2017-06-29T05:36:45.186Z,8076
2017-06-29T05:37:46.857Z,8156
2017-06-29T05:38:55.567Z,8144
2017-06-29T05:39:57.360Z,8152
2017-06-29T05:41:10.145Z,8528
2017-06-29T05:42:11.840Z,9248
2017-06-29T05:43:18.670Z,9304
2017-06-29T05:44:20.350Z,9000
2017-06-29T05:45:29.078Z,8888
2017-06-29T05:46:30.781Z,8700
2017-06-29T05:47:32.648Z,8624
2017-06-29T05:48:34.320Z,8540
2017-06-29T05:49:38.122Z,8752
2017-06-29T05:50:39.846Z,8396
2017-06-29T05:51:42.647Z,8464
2017-06-29T05:52:44.315Z,9084
2017-06-29T05:53:46.141Z,9540
2017-06-29T05:54:47.826Z,9648
2017-06-29T05:55:49.641Z,9364
2017-06-29T05:56:51.316Z,9744
2017-06-29T05:57:54.045Z,10276
2017-06-29T05:58:55.726Z,10520
2017-06-29T05:59:57.541Z,10764
2017-06-29T06:00:59.311Z,11056
2017-06-29T06:02:01.051Z,11416
2017-06-29T06:03:02.730Z,10764
2017-06-29T06:04:05.447Z,10832
2017-06-29T06:05:07.133Z,11244
2017-06-29T06:06:08.859Z,11344
2017-06-29T06:07:10.568Z,10924
2017-06-29T06:09:38.884Z,9208
2017-06-29T06:10:40.560Z,10144
2017-06-29T06:11:47.901Z,10184
2017-06-29T06:12:49.575Z,9636
2017-06-29T06:15:49.078Z,10252
2017-06-29T06:16:52.848Z,9264
2017-06-29T06:17:54.532Z,9752
2017-06-29T06:18:58.542Z,12104
2017-06-29T06:20:00.210Z,14340
2017-06-29T06:21:02.913Z,15360
2017-06-29T06:22:04.564Z,15172
2017-06-29T06:23:17.064Z,11108
2017-06-29T06:24:18.813Z,10812
2017-06-29T06:25:21.621Z,10236
2017-06-29T06:26:23.295Z,11256
2017-06-29T06:27:26.111Z,11432
2017-06-29T06:28:27.777Z,11020
2017-06-29T06:29:31.547Z,11880
2017-06-29T06:30:33.207Z,11224
2017-06-29T06:31:40.868Z,11564
2017-06-29T06:32:42.911Z,10676
2017-06-29T06:33:59.403Z,10724
2017-06-29T06:35:01.078Z,12288
2017-06-29T06:36:02.898Z,13996
2017-06-29T06:37:04.563Z,13488
2017-06-29T06:38:06.357Z,13616
2017-06-29T06:39:08.062Z,13440
2017-06-29T06:40:14.412Z,13096
2017-06-29T06:41:16.071Z,12968
2017-06-29T06:42:29.382Z,13588
2017-06-29T06:43:31.061Z,13600
2017-06-29T06:44:38.382Z,13364
2017-06-29T06:45:40.045Z,12264
2017-06-29T06:46:52.333Z,12808
2017-06-29T06:47:54.048Z,11816
2017-06-29T06:49:00.438Z,10736
2017-06-29T06:50:02.104Z,9132
2017-06-29T06:51:03.964Z,8396
2017-06-29T06:52:05.643Z,9232
2017-06-29T06:53:08.477Z,10096
2017-06-29T06:54:10.204Z,9612
2017-06-29T06:55:11.958Z,9268
2017-06-29T06:56:13.661Z,10212
2017-06-29T06:57:15.489Z,10504
2017-06-29T06:58:17.173Z,9224
2017-06-29T06:59:18.891Z,9120
2017-06-29T07:00:20.571Z,9460
2017-06-29T07:01:22.260Z,8592
2017-06-29T07:02:23.915Z,8284
2017-06-29T07:03:25.960Z,9296
2017-06-29T07:04:28.086Z,8800
2017-06-29T07:05:29.706Z,9020
2017-06-29T07:06:31.381Z,8816
2017-06-29T07:07:33.049Z,8284
2017-06-29T07:08:34.725Z,7696
2017-06-29T07:09:36.494Z,9060
2017-06-29T07:10:38.185Z,10984
2017-06-29T07:11:43.637Z,11756
2017-06-29T07:12:45.319Z,11720
2017-06-29T07:13:47.029Z,10364
2017-06-29T07:14:48.715Z,8208
2017-06-29T07:15:50.418Z,7108
2017-06-29T07:16:52.191Z,5876
2017-06-29T07:17:53.870Z,5072
2017-06-29T07:18:55.548Z,5012
2017-06-29T07:19:57.211Z,4884
2017-06-29T07:20:58.902Z,5552
2017-06-29T07:22:00.557Z,5708
2017-06-29T07:23:02.437Z,5424
2017-06-29T07:24:04.098Z,5420
2017-06-29T07:25:05.778Z,5440
2017-06-29T07:26:07.521Z,4828
2017-06-29T07:27:09.188Z,4480
2017-06-29T07:28:10.995Z,4364
2017-06-29T07:29:12.684Z,4524
2017-06-29T07:30:14.410Z,3884
2017-06-29T07:31:16.075Z,3792
2017-06-29T07:32:17.842Z,4088
2017-06-29T07:33:19.550Z,3820
2017-06-29T07:34:21.310Z,3648
2017-06-29T07:35:22.999Z,3624
2017-06-29T07:36:24.849Z,3316
2017-06-29T07:37:26.588Z,2744
2017-06-29T07:38:28.371Z,2336
2017-06-29T07:39:30.047Z,2088
2017-06-29T07:40:31.857Z,2128
2017-06-29T07:41:33.561Z,2076
2017-06-29T07:42:35.340Z,1988
2017-06-29T07:43:38.066Z,2168
2017-06-29T07:44:40.246Z,2632
2017-06-29T07:45:41.950Z,2828
2017-06-29T07:46:43.691Z,2872
2017-06-29T07:47:45.380Z,3096
2017-06-29T07:48:48.463Z,3492
2017-06-29T07:49:50.787Z,3900
2017-06-29T07:50:52.505Z,4408
2017-06-29T07:51:54.342Z,4812
2017-06-29T07:52:56.017Z,5428
2017-06-29T07:53:57.898Z,6320
2017-06-29T07:54:59.628Z,6800
2017-06-29T07:56:01.426Z,6860
2017-06-29T07:57:03.115Z,6708
2017-06-29T07:58:05.365Z,7624
2017-06-29T07:59:07.190Z,7636
2017-06-29T08:00:09.074Z,7744
2017-06-29T08:01:10.892Z,6444
2017-06-29T08:02:12.822Z,7008
2017-06-29T08:03:14.496Z,7940
2017-06-29T08:04:17.317Z,7704
2017-06-29T08:05:18.992Z,7748
2017-06-29T08:06:20.802Z,8280
2017-06-29T08:07:22.500Z,8948
2017-06-29T08:08:24.324Z,9696
2017-06-29T08:09:26.007Z,9880
2017-06-29T08:10:27.702Z,9364
2017-06-29T08:11:29.401Z,9964
2017-06-29T08:12:31.143Z,10336
2017-06-29T08:13:32.829Z,10304
2017-06-29T08:14:34.504Z,10212
2017-06-29T08:15:36.480Z,10504
2017-06-29T08:16:38.158Z,10796
2017-06-29T08:17:39.851Z,9852
2017-06-29T08:18:41.556Z,9360
2017-06-29T08:19:43.622Z,8320
2017-06-29T08:20:45.242Z,7628
2017-06-29T08:21:47.029Z,6288
2017-06-29T08:22:48.715Z,5452
2017-06-29T08:23:50.525Z,5168
2017-06-29T08:24:52.211Z,5044
2017-06-29T08:25:54.069Z,4592
2017-06-29T08:26:55.653Z,4008
2017-06-29T08:27:57.485Z,4044
2017-06-29T08:28:59.175Z,3460
2017-06-29T08:30:00.873Z,3152
2017-06-29T08:31:02.548Z,2848
2017-06-29T08:32:04.538Z,2808
2017-06-29T08:33:06.285Z,2616
2017-06-29T08:34:08.142Z,2560
2017-06-29T08:35:09.815Z,2404
2017-06-29T08:36:11.561Z,2688
2017-06-29T08:37:13.222Z,3116
2017-06-29T08:38:14.959Z,3540
2017-06-29T08:39:16.676Z,3572
2017-06-29T08:40:18.482Z,3568
2017-06-29T08:41:20.177Z,3656
2017-06-29T08:42:22.974Z,3820
2017-06-29T08:43:24.674Z,3360
2017-06-29T08:44:26.516Z,3320
2017-06-29T08:45:28.235Z,3868
2017-06-29T08:46:29.967Z,4308
2017-06-29T08:47:31.834Z,4584
2017-06-29T08:48:33.620Z,5292
2017-06-29T08:49:35.431Z,5892
2017-06-29T08:50:37.166Z,6532
2017-06-29T08:51:38.972Z,7152
2017-06-29T08:52:40.651Z,7592
2017-06-29T08:53:42.833Z,7668
2017-06-29T08:54:44.306Z,7512
2017-06-29T08:55:46.089Z,7520
2017-06-29T08:56:47.756Z,7396
2017-06-29T08:57:50.768Z,7536
2017-06-29T08:58:52.626Z,7164
2017-06-29T08:59:54.373Z,7188
2017-06-29T09:00:56.159Z,6928
2017-06-29T09:01:57.845Z,6652
2017-06-29T09:03:00.664Z,6268
2017-06-29T09:04:02.359Z,6380
2017-06-29T09:05:04.214Z,6252
2017-06-29T09:06:05.945Z,6052
2017-06-29T09:07:07.771Z,6396
2017-06-29T09:08:09.441Z,6272
2017-06-29T09:09:11.959Z,6604
2017-06-29T09:10:13.698Z,6724
2017-06-29T09:11:15.473Z,6876
2017-06-29T09:12:17.202Z,6620
2017-06-29T09:13:18.979Z,7460
2017-06-29T09:14:20.648Z,7652
2017-06-29T09:15:23.504Z,7804
2017-06-29T09:16:25.188Z,7540
2017-06-29T09:17:26.895Z,7264
2017-06-29T09:18:28.730Z,6660
2017-06-29T09:19:30.394Z,6216
2017-06-29T09:20:32.189Z,5968
2017-06-29T09:21:33.889Z,5496
2017-06-29T09:22:36.675Z,5200
2017-06-29T09:23:38.752Z,5300
2017-06-29T09:24:40.650Z,5156
2017-06-29T09:25:42.306Z,5412
2017-06-29T09:26:44.035Z,6056
2017-06-29T09:27:45.732Z,6264
2017-06-29T09:28:47.546Z,6288
2017-06-29T09:29:49.221Z,6824
2017-06-29T09:30:50.952Z,7400
2017-06-29T09:31:52.652Z,7492
2017-06-29T09:32:54.463Z,7748
2017-06-29T09:33:56.236Z,8008
2017-06-29T09:34:58.147Z,7452
2017-06-29T09:35:59.924Z,7464
2017-06-29T09:37:01.728Z,7612
2017-06-29T09:38:03.391Z,7068
2017-06-29T09:39:05.106Z,6172
2017-06-29T09:40:06.780Z,5276
2017-06-29T09:41:10.319Z,5368
2017-06-29T09:42:12.002Z,6576
2017-06-29T09:43:13.702Z,7648
2017-06-29T09:44:15.511Z,8060
2017-06-29T09:45:17.587Z,7412
2017-06-29T09:46:19.426Z,6764
2017-06-29T09:47:21.061Z,7448
2017-06-29T09:48:23.031Z,7428
2017-06-29T09:49:24.764Z,6424
2017-06-29T09:50:26.594Z,6108
2017-06-29T09:51:28.336Z,5620
2017-06-29T09:52:31.485Z,5764
2017-06-29T09:53:33.185Z,6528
2017-06-29T09:54:34.848Z,7096
2017-06-29T09:55:36.912Z,6076
2017-06-29T09:56:38.603Z,5712
2017-06-29T09:57:40.328Z,5832
2017-06-29T09:58:42.202Z,5532
2017-06-29T09:59:43.909Z,5544
2017-06-29T10:00:46.837Z,5828
2017-06-29T10:01:48.586Z,6240
2017-06-29T10:02:50.408Z,5300
2017-06-29T10:03:52.098Z,4760
2017-06-29T10:04:53.774Z,4212
2017-06-29T10:05:55.533Z,4484
2017-06-29T10:06:57.304Z,4920
2017-06-29T10:07:59.013Z,5156
2017-06-29T10:09:00.813Z,5580
2017-06-29T10:10:02.634Z,6252
2017-06-29T10:11:04.351Z,7592
2017-06-29T10:12:06.122Z,9640
2017-06-29T10:13:07.878Z,11328
2017-06-29T10:14:09.705Z,12440
2017-06-29T10:15:11.462Z,13264
2017-06-29T10:16:13.239Z,13892
2017-06-29T10:17:14.995Z,14104
2017-06-29T10:18:16.810Z,13884
2017-06-29T10:19:18.583Z,13868
2017-06-29T10:20:20.338Z,13580
2017-06-29T10:21:22.180Z,12828
2017-06-29T10:22:24.032Z,12480
2017-06-29T10:23:25.741Z,12692
2017-06-29T10:24:27.575Z,13108
2017-06-29T10:25:29.390Z,13520
2017-06-29T10:26:32.233Z,13964
2017-06-29T10:27:34.014Z,14044
2017-06-29T10:28:35.848Z,13824
2017-06-29T10:29:37.626Z,13204
2017-06-29T10:30:39.645Z,13392
2017-06-29T10:31:41.468Z,13748
2017-06-29T10:32:43.513Z,14040
2017-06-29T10:33:45.289Z,13732
2017-06-29T10:34:47.168Z,12672
2017-06-29T10:35:48.960Z,11128
2017-06-29T10:36:50.745Z,10888
2017-06-29T10:37:52.572Z,11024
2017-06-29T10:38:54.309Z,10980
2017-06-29T10:39:56.014Z,11964
2017-06-29T10:40:59.815Z,12300
2017-06-29T10:42:01.734Z,12108
2017-06-29T10:43:05.578Z,11848
2017-06-29T10:44:07.352Z,11404
2017-06-29T10:45:24.075Z,11464
2017-06-29T10:46:25.854Z,10388
2017-06-29T10:47:27.640Z,9016
2017-06-29T10:48:29.394Z,9236
2017-06-29T11:23:19.108Z,7648
2017-06-29T11:24:20.876Z,6496
2017-06-29T11:25:27.514Z,7068
2017-06-29T11:26:29.577Z,8336
2017-06-29T11:27:31.372Z,8528
2017-06-29T11:28:33.125Z,8804
2017-06-29T11:29:34.917Z,9436
2017-06-29T11:30:36.696Z,10600
2017-06-29T11:31:38.461Z,11648
2017-06-29T11:32:40.246Z,12184
2017-06-29T11:33:42.118Z,12340
2017-06-29T11:34:44.202Z,11964
2017-06-29T11:35:46.002Z,11304
2017-06-29T11:36:48.176Z,9988
2017-06-29T11:37:50.310Z,9568
2017-06-29T11:38:52.193Z,8180
2017-06-29T11:39:59.614Z,6356
2017-06-29T11:41:01.482Z,5604
2017-06-29T11:42:03.466Z,5188
2017-06-29T11:43:05.231Z,5420
2017-06-29T11:44:12.551Z,5932
2017-06-29T11:45:14.321Z,6616
2017-06-29T11:46:16.141Z,7412
2017-06-29T11:47:18.244Z,7512
2017-06-29T11:48:21.074Z,7580
2017-06-29T11:49:23.149Z,7576
2017-06-29T11:50:24.966Z,7272
2017-06-29T11:51:26.774Z,7180
2017-06-29T11:52:33.155Z,7492
2017-06-29T11:53:35.002Z,8116
2017-06-29T11:54:38.812Z,7880
2017-06-29T11:55:40.542Z,7324
2017-06-29T11:56:47.190Z,6148
2017-06-29T11:57:48.909Z,5084
2017-06-29T11:58:50.707Z,4860
2017-06-29T11:59:52.557Z,4956
2017-06-29T12:00:55.351Z,4528
2017-06-29T12:01:57.121Z,4652
2017-06-29T12:03:00.026Z,4672
2017-06-29T12:04:01.769Z,4588
2017-06-29T12:05:03.594Z,4772
2017-06-29T12:06:05.511Z,4980
2017-06-29T12:07:07.539Z,5952
2017-06-29T12:08:09.321Z,7228
2017-06-29T12:09:11.176Z,6716
2017-06-29T12:10:13.068Z,4868
2017-06-29T12:11:15.051Z,4512
2017-06-29T12:12:16.834Z,4596
2017-06-29T12:13:18.678Z,5416
2017-06-29T12:14:20.519Z,6060
2017-06-29T12:15:22.260Z,6812
2017-06-29T12:16:23.988Z,7288
2017-06-29T12:17:25.787Z,6152
2017-06-29T12:18:27.538Z,5564
2017-06-29T12:19:29.292Z,6784
2017-06-29T12:20:31.348Z,7864
2017-06-29T12:21:33.083Z,7276
2017-06-29T12:22:34.738Z,5808
2017-06-29T12:23:36.732Z,5008
2017-06-29T12:24:38.497Z,4104
2017-06-29T12:25:40.358Z,3552
2017-06-29T12:26:42.187Z,3636
2017-06-29T12:27:43.980Z,3480
2017-06-29T12:28:45.757Z,4076
2017-06-29T12:29:47.480Z,4804
2017-06-29T12:30:49.271Z,5392
2017-06-29T12:31:51.100Z,5664
2017-06-29T12:32:52.766Z,5072
2017-06-29T12:33:54.620Z,4536
2017-06-29T12:34:56.424Z,4192
2017-06-29T12:35:58.166Z,4212
2017-06-29T12:37:00.227Z,4488
2017-06-29T12:38:02.780Z,4764
2017-06-29T12:39:04.437Z,5064
2017-06-29T12:40:06.237Z,5556
2017-06-29T12:41:08.048Z,6436
2017-06-29T12:42:09.777Z,7344
2017-06-29T12:43:11.601Z,7828
2017-06-29T12:44:13.354Z,8064
2017-06-29T12:45:15.154Z,8164
2017-06-29T12:46:17.022Z,8472
2017-06-29T12:47:18.798Z,8816
2017-06-29T12:48:20.496Z,9228
2017-06-29T12:49:22.831Z,9672
2017-06-29T12:50:24.581Z,10228
2017-06-29T12:51:26.261Z,10456
2017-06-29T12:52:28.163Z,10332
2017-06-29T12:53:29.946Z,10252
2017-06-29T12:54:31.751Z,10200
2017-06-29T12:55:33.647Z,10604
2017-06-29T12:56:35.617Z,10900
2017-06-29T12:57:37.407Z,11284
2017-06-29T12:58:39.294Z,11596
2017-06-29T12:59:41.296Z,11720
2017-06-29T13:00:43.142Z,11884
2017-06-29T13:01:44.943Z,11868
2017-06-29T13:02:46.796Z,11804
2017-06-29T13:03:48.596Z,11808
2017-06-29T13:04:50.324Z,11364
2017-06-29T13:05:52.085Z,11180
2017-06-29T13:06:54.013Z,11040
2017-06-29T13:07:55.820Z,10836
2017-06-29T13:08:57.794Z,10392
2017-06-29T13:09:59.594Z,10136
2017-06-29T13:11:01.535Z,10056
2017-06-29T13:12:03.353Z,9968
2017-06-29T13:13:05.195Z,9908
2017-06-29T13:14:06.972Z,9636
2017-06-29T13:15:08.808Z,9596
2017-06-29T13:16:10.505Z,9668
2017-06-29T13:17:12.324Z,9704
2017-06-29T13:18:14.153Z,9872
2017-06-29T13:19:15.946Z,9876
2017-06-29T13:20:17.747Z,9824
2017-06-29T13:21:19.565Z,9680
2017-06-29T13:22:21.332Z,9732
2017-06-29T13:23:23.216Z,9868
2017-06-29T13:24:25.001Z,10092
2017-06-29T13:25:26.813Z,10372
2017-06-29T13:26:28.501Z,10484
2017-06-29T13:27:30.265Z,10480
2017-06-29T13:28:32.115Z,10548
2017-06-29T13:29:33.932Z,10636
2017-06-29T13:30:35.702Z,10632
2017-06-29T13:31:37.563Z,10684
2017-06-29T13:32:39.290Z,10720
2017-06-29T13:33:41.150Z,10720
2017-06-29T13:34:42.937Z,10672
2017-06-29T13:35:45.247Z,10620
2017-06-29T13:36:47.030Z,10500
2017-06-29T13:37:49.241Z,10364
2017-06-29T13:38:50.959Z,10268
2017-06-29T13:39:52.852Z,10140
2017-06-29T13:40:54.670Z,10024
2017-06-29T13:41:56.355Z,9876
2017-06-29T13:42:58.129Z,9764
2017-06-29T13:44:00.003Z,9676
2017-06-29T13:45:01.721Z,9552
2017-06-29T13:46:03.481Z,9336
2017-06-29T13:47:05.276Z,9052
2017-06-29T13:48:06.978Z,8836
2017-06-29T13:49:08.808Z,8692
2017-06-29T13:50:10.655Z,8576
2017-06-29T13:51:12.375Z,8472
2017-06-29T13:52:14.177Z,8368
2017-06-29T13:53:16.009Z,8272
2017-06-29T13:54:17.724Z,8156
2017-06-29T13:55:19.597Z,8076
2017-06-29T13:56:21.420Z,8008
2017-06-29T13:57:23.233Z,7908
2017-06-29T13:58:28.460Z,7784
2017-06-29T13:59:31.649Z,7600
2017-06-29T14:00:33.302Z,7376
2017-06-29T14:01:35.102Z,7164
2017-06-29T14:02:36.913Z,7048
2017-06-29T14:03:38.661Z,7064
2017-06-29T14:04:40.860Z,7204
2017-06-29T14:05:42.677Z,7320
2017-06-29T14:06:44.604Z,7252
2017-06-29T14:07:47.082Z,7248
2017-06-29T14:08:49.310Z,7228
2017-06-29T14:09:51.059Z,7288
2017-06-29T14:10:54.067Z,7252
2017-06-29T14:11:55.927Z,7232
2017-06-29T14:12:57.718Z,7228
2017-06-29T14:14:00.645Z,7292
2017-06-29T14:15:02.405Z,7140
2017-06-29T14:16:04.110Z,6824
2017-06-29T14:17:05.971Z,5968
2017-06-29T14:18:07.710Z,5216
2017-06-29T14:19:09.578Z,4384
2017-06-29T14:20:11.489Z,4220
2017-06-29T14:21:13.338Z,5104
2017-06-29T14:22:15.080Z,6104
2017-06-29T14:23:16.962Z,6676
2017-06-29T14:24:18.765Z,6824
2017-06-29T14:25:20.693Z,7316
2017-06-29T14:26:22.446Z,7164
2017-06-29T14:27:24.274Z,7028
2017-06-29T14:28:26.078Z,7672
2017-06-29T14:29:28.107Z,8308
2017-06-29T14:30:29.865Z,8664
2017-06-29T14:31:33.720Z,8872
2017-06-29T14:32:35.513Z,8968
2017-06-29T14:33:37.504Z,8988
2017-06-29T14:34:39.194Z,8956
2017-06-29T14:35:41.023Z,8876
2017-06-29T14:36:42.866Z,8764
2017-06-29T14:37:45.740Z,8664
2017-06-29T14:38:47.451Z,8592
2017-06-29T14:39:50.089Z,8408
2017-06-29T14:40:51.814Z,8364
2017-06-29T14:41:53.694Z,8244
2017-06-29T14:42:55.414Z,8144
2017-06-29T14:43:57.312Z,8096
2017-06-29T14:44:59.078Z,7976
2017-06-29T14:46:00.892Z,7932
2017-06-29T14:47:02.987Z,7836
2017-06-29T14:48:04.839Z,7700
2017-06-29T14:49:07.384Z,7528
2017-06-29T14:50:09.264Z,7356
2017-06-29T14:51:11.395Z,7072
2017-06-29T14:52:13.199Z,6852
2017-06-29T14:53:15.105Z,6852
2017-06-29T14:54:17.632Z,6880
2017-06-29T14:55:19.672Z,6912
2017-06-29T14:56:22.850Z,7024
2017-06-29T14:57:24.564Z,7100
2017-06-29T14:58:26.594Z,7076
2017-06-29T14:59:28.540Z,6768
2017-06-29T15:00:30.477Z,6256
2017-06-29T15:01:32.270Z,5800
2017-06-29T15:02:34.070Z,5576
2017-06-29T15:03:35.747Z,5556
2017-06-29T15:04:37.647Z,5664
2017-06-29T15:05:39.414Z,5916
2017-06-29T15:06:41.130Z,5820
2017-06-29T15:07:42.890Z,5584
2017-06-29T15:08:44.683Z,5420
2017-06-29T15:09:46.456Z,5016
2017-06-29T15:10:48.448Z,4696
2017-06-29T15:11:50.121Z,4716
2017-06-29T15:12:52.025Z,5004
2017-06-29T15:13:53.785Z,5388
2017-06-29T15:14:55.503Z,5852
2017-06-29T15:15:57.280Z,6376
2017-06-29T15:17:05.588Z,6748
2017-06-29T15:18:07.362Z,6980
2017-06-29T15:19:09.192Z,7104
2017-06-29T15:20:11.115Z,7128
2017-06-29T15:21:17.755Z,7108
2017-06-29T15:22:19.542Z,7236
2017-06-29T15:23:22.306Z,7204
2017-06-29T15:24:24.181Z,7228
2017-06-29T15:25:32.776Z,7252
2017-06-29T15:26:34.594Z,7244
2017-06-29T15:27:37.371Z,7232
2017-06-29T15:28:39.104Z,7160
2017-06-29T15:29:40.987Z,7064
2017-06-29T15:30:42.897Z,6972
2017-06-29T15:31:50.240Z,6880
2017-06-29T15:32:51.982Z,6788
2017-06-29T15:33:53.830Z,6768
2017-06-29T15:34:56.031Z,6748
2017-06-29T15:35:57.739Z,6708
2017-06-29T15:36:59.494Z,6656
2017-06-29T15:38:01.361Z,6624
2017-06-29T15:39:03.082Z,6584
2017-06-29T15:40:04.961Z,6544
2017-06-29T15:41:06.632Z,6496
2017-06-29T15:42:08.425Z,6480
2017-06-29T15:43:10.442Z,6456
2017-06-29T15:44:12.319Z,6460
2017-06-29T15:45:14.157Z,6384
2017-06-29T17:25:19.114Z,3256
2017-06-29T17:26:20.810Z,3192
2017-06-29T17:27:22.664Z,3124
2017-06-29T17:28:24.601Z,3084
2017-06-29T17:29:26.386Z,3024